Time;durP1;ratioP1;P1;durP2;ratioP2;P2;SDS_P1;SDS_P2;PMS_P1;PMS_P2;Temp;Humidity;BMP_temperature;BMP_pressure;BME280_temperature;BME280_humidity;BME280_pressure;Samples;Min_cycle;Max_cycle;Signal;HPM_P1;HPM_P2
2023/05/10 00:02:11;;;;;;;1.33;1.23;;;13.90;99.90;;;;;;6125155;23;20522;-69
2023/05/10 00:04:39;;;;;;;1.13;1.03;;;13.80;99.90;;;;;;6132406;23;20465;-71
2023/05/10 00:07:07;;;;;;;0.80;0.80;;;13.80;99.90;;;;;;6142025;23;20463;-69
2023/05/10 00:09:34;;;;;;;0.97;0.87;;;13.70;99.90;;;;;;6144759;23;20442;-69
2023/05/10 00:12:01;;;;;;;1.00;0.80;;;13.70;99.90;;;;;;6126062;23;21273;-69
2023/05/10 00:14:28;;;;;;;0.70;0.60;;;13.60;99.90;;;;;;6133239;23;20517;-70
2023/05/10 00:16:55;;;;;;;0.70;0.70;;;13.50;99.90;;;;;;6140302;23;20289;-70
2023/05/10 00:19:22;;;;;;;1.20;0.60;;;13.50;99.90;;;;;;6142783;23;20937;-70
2023/05/10 00:21:50;;;;;;;0.70;0.50;;;13.40;99.90;;;;;;6144803;23;20433;-70
2023/05/10 00:24:17;;;;;;;1.52;0.50;;;13.40;99.90;;;;;;6136032;23;20564;-69
2023/05/10 00:26:44;;;;;;;1.90;0.60;;;13.30;99.90;;;;;;6131297;23;20219;-69
2023/05/10 00:29:11;;;;;;;0.70;0.60;;;13.30;99.90;;;;;;6145271;23;20520;-69
2023/05/10 00:31:38;;;;;;;1.20;0.60;;;13.20;99.90;;;;;;6149147;23;20505;-69
2023/05/10 00:34:05;;;;;;;1.00;0.60;;;13.20;99.90;;;;;;6135784;23;20773;-69
2023/05/10 00:36:32;;;;;;;0.70;0.50;;;13.10;99.90;;;;;;6144614;23;20523;-69
2023/05/10 00:39:01;;;;;;;1.45;0.60;;;13.10;99.90;;;;;;6148961;23;20182;-69
2023/05/10 00:41:28;;;;;;;0.60;0.60;;;13.10;99.90;;;;;;6145783;23;20210;-69
2023/05/10 00:43:55;;;;;;;0.60;0.50;;;13.10;99.90;;;;;;6136724;23;20215;-70
2023/05/10 00:46:22;;;;;;;0.82;0.60;;;13.00;99.90;;;;;;6134865;23;20486;-70
2023/05/10 00:48:50;;;;;;;0.90;0.65;;;13.00;99.90;;;;;;6134599;23;20606;-69
2023/05/10 00:51:17;;;;;;;0.63;0.63;;;13.00;99.90;;;;;;6144377;23;20641;-69
2023/05/10 00:53:46;;;;;;;1.50;0.70;;;13.00;99.90;;;;;;6142849;23;20243;-70
2023/05/10 00:56:14;;;;;;;0.70;0.70;;;13.00;99.90;;;;;;6123651;23;20207;-69
2023/05/10 00:58:41;;;;;;;0.80;0.57;;;13.00;99.90;;;;;;6134521;23;20187;-70
2023/05/10 01:01:09;;;;;;;0.80;0.80;;;13.00;99.90;;;;;;6140281;23;20183;-70
2023/05/10 01:03:37;;;;;;;1.70;0.85;;;13.00;99.90;;;;;;6130409;23;20210;-70
2023/05/10 01:06:04;;;;;;;0.75;0.73;;;13.00;99.90;;;;;;6142540;23;20222;-70
2023/05/10 01:08:32;;;;;;;1.00;0.90;;;13.00;99.90;;;;;;6147732;23;20187;-70
2023/05/10 01:10:59;;;;;;;0.80;0.80;;;13.00;99.90;;;;;;6136314;23;20470;-70
2023/05/10 01:13:33;;;;;;;0.93;0.80;;;13.00;99.90;;;;;;6146096;23;20856;-69
2023/05/10 01:16:02;;;;;;;0.93;0.70;;;13.00;99.90;;;;;;6137791;23;20516;-70
2023/05/10 01:18:31;;;;;;;1.37;1.27;;;13.00;99.90;;;;;;6147419;23;20221;-69
2023/05/10 01:21:20;;;;;;;1.60;1.50;;;13.00;99.90;;;;;;6149027;23;20989;-69
2023/05/10 01:24:15;;;;;;;1.40;1.20;;;13.00;99.90;;;;;;6132540;23;20465;-70
2023/05/10 01:27:19;;;;;;;1.88;1.33;;;13.00;99.90;;;;;;6091312;23;20520;-69
2023/05/10 01:30:21;;;;;;;1.40;1.30;;;13.00;99.90;;;;;;6138636;23;20600;-69
2023/05/10 01:32:56;;;;;;;1.80;1.70;;;13.00;99.90;;;;;;6137531;23;20428;-70
2023/05/10 01:35:32;;;;;;;1.80;1.70;;;13.00;99.90;;;;;;6136351;23;20464;-69
2023/05/10 01:38:08;;;;;;;1.33;1.23;;;13.00;99.90;;;;;;6136425;23;20257;-70
2023/05/10 01:40:43;;;;;;;1.83;1.73;;;13.00;99.90;;;;;;6128538;23;21134;-69
2023/05/10 01:43:23;;;;;;;1.73;1.63;;;13.00;99.90;;;;;;6144390;23;20800;-69
2023/05/10 01:46:04;;;;;;;1.63;1.40;;;13.00;99.90;;;;;;6141928;23;20461;-70
2023/05/10 01:48:33;;;;;;;2.45;1.60;;;13.00;99.90;;;;;;6125791;23;20436;-70
2023/05/10 01:51:01;;;;;;;1.85;1.75;;;13.00;99.90;;;;;;6126013;23;20187;-69
2023/05/10 01:53:29;;;;;;;1.83;1.73;;;13.00;99.90;;;;;;6132101;23;20191;-70
2023/05/10 01:55:56;;;;;;;1.58;1.48;;;13.00;99.90;;;;;;6126907;23;20272;-69
2023/05/10 01:58:29;;;;;;;1.50;1.40;;;13.00;99.90;;;;;;6142433;23;20263;-69
2023/05/10 02:00:58;;;;;;;1.80;1.70;;;13.00;99.90;;;;;;6136523;23;20213;-69
2023/05/10 02:03:27;;;;;;;1.80;1.70;;;13.00;99.90;;;;;;6128956;23;20642;-70
2023/05/10 02:05:58;;;;;;;3.00;1.33;;;13.00;99.90;;;;;;6141608;23;20536;-69
2023/05/10 02:08:25;;;;;;;1.97;1.50;;;13.00;99.90;;;;;;6137136;23;20437;-70
2023/05/10 02:10:56;;;;;;;1.60;1.50;;;13.00;99.90;;;;;;6145482;23;20432;-70
2023/05/10 02:13:25;;;;;;;1.53;1.43;;;13.00;99.90;;;;;;6132774;23;20434;-69
2023/05/10 02:15:55;;;;;;;1.50;1.40;;;13.00;99.90;;;;;;6125206;23;20536;-70
2023/05/10 02:18:23;;;;;;;1.87;1.67;;;13.00;99.90;;;;;;6141767;23;20425;-69
2023/05/10 02:20:52;;;;;;;1.80;1.70;;;13.00;99.90;;;;;;6130205;23;20429;-69
2023/05/10 02:23:21;;;;;;;1.60;1.50;;;12.90;99.90;;;;;;6145566;23;20528;-69
2023/05/10 02:25:50;;;;;;;2.25;1.60;;;12.90;99.90;;;;;;6146071;23;20874;-69
2023/05/10 02:28:20;;;;;;;1.90;1.80;;;13.00;99.90;;;;;;6130423;23;20270;-69
2023/05/10 02:30:48;;;;;;;1.90;1.80;;;13.00;99.90;;;;;;6144893;23;20882;-69
2023/05/10 02:33:16;;;;;;;1.87;1.70;;;12.90;99.90;;;;;;6137730;23;20517;-69
2023/05/10 02:35:43;;;;;;;5.17;1.90;;;12.90;99.90;;;;;;6134667;23;20485;-69
2023/05/10 02:38:12;;;;;;;1.90;1.80;;;12.90;99.90;;;;;;6132815;23;20528;-69
2023/05/10 02:40:43;;;;;;;1.80;1.70;;;13.00;99.90;;;;;;6137905;23;20430;-69
2023/05/10 02:43:14;;;;;;;1.77;1.67;;;12.90;99.90;;;;;;6130282;23;20984;-69
2023/05/10 02:45:42;;;;;;;1.80;1.70;;;13.20;99.90;;;;;;6130417;23;20476;-70
2023/05/10 02:48:09;;;;;;;2.00;1.90;;;13.00;99.90;;;;;;6135492;23;20433;-70
2023/05/10 02:50:39;;;;;;;2.20;2.10;;;13.00;99.90;;;;;;6135151;23;20520;-70
2023/05/10 02:53:23;;;;;;;1.77;1.67;;;12.90;99.90;;;;;;6142248;23;20219;-70
2023/05/10 02:55:54;;;;;;;3.20;1.75;;;12.90;99.90;;;;;;6129113;23;20463;-69
2023/05/10 02:58:20;;;;;;;1.70;1.60;;;12.90;99.90;;;;;;6136913;23;20195;-70
2023/05/10 03:00:48;;;;;;;2.28;1.95;;;12.90;99.90;;;;;;6132771;23;20469;-70
2023/05/10 03:03:15;;;;;;;1.70;1.60;;;13.00;99.90;;;;;;6126626;23;20201;-69
2023/05/10 03:05:42;;;;;;;2.00;1.90;;;13.00;99.90;;;;;;6138513;23;20544;-70
2023/05/10 03:08:09;;;;;;;2.28;2.17;;;13.00;99.90;;;;;;6126297;23;20468;-69
2023/05/10 03:10:48;;;;;;;2.23;2.03;;;13.00;99.90;;;;;;6138193;23;20180;-69
2023/05/10 03:13:26;;;;;;;2.63;2.43;;;13.00;99.90;;;;;;6130798;23;20472;-70
2023/05/10 03:15:59;;;;;;;2.23;2.13;;;13.10;99.90;;;;;;6139786;23;21026;-69
2023/05/10 03:18:34;;;;;;;3.07;2.87;;;13.10;99.90;;;;;;6128106;23;20900;-69
2023/05/10 03:21:05;;;;;;;2.50;2.30;;;13.10;99.90;;;;;;6145227;23;20433;-70
2023/05/10 03:23:36;;;;;;;2.20;2.10;;;13.10;99.90;;;;;;6125684;23;20184;-70
2023/05/10 03:26:05;;;;;;;2.40;2.30;;;13.10;99.90;;;;;;6133732;23;20223;-69
2023/05/10 03:28:35;;;;;;;2.90;2.70;;;13.00;99.90;;;;;;6142078;23;20187;-70
2023/05/10 03:31:04;;;;;;;2.75;2.40;;;13.10;99.90;;;;;;6123663;23;20180;-69
2023/05/10 03:33:32;;;;;;;3.58;3.30;;;13.00;99.90;;;;;;6137792;23;20229;-69
2023/05/10 03:35:59;;;;;;;2.97;2.78;;;13.00;99.90;;;;;;6138848;23;20239;-70
2023/05/10 03:38:26;;;;;;;2.83;2.60;;;13.10;99.90;;;;;;6129198;23;20189;-70
2023/05/10 03:40:53;;;;;;;3.00;2.80;;;13.10;99.90;;;;;;6127032;23;20262;-70
2023/05/10 03:43:20;;;;;;;2.90;2.70;;;13.10;99.90;;;;;;6140839;23;20236;-70
2023/05/10 03:45:48;;;;;;;3.10;2.67;;;13.10;99.90;;;;;;6143279;23;20223;-69
2023/05/10 03:48:15;;;;;;;3.40;3.13;;;13.10;99.90;;;;;;6140183;23;20460;-70
2023/05/10 03:50:42;;;;;;;3.33;3.03;;;13.10;99.90;;;;;;6144200;23;20440;-70
2023/05/10 03:53:09;;;;;;;3.88;3.60;;;13.10;99.90;;;;;;6134434;23;20762;-70
2023/05/10 03:55:37;;;;;;;3.90;3.70;;;13.10;99.90;;;;;;6137177;23;20206;-70
2023/05/10 03:58:04;;;;;;;3.30;3.10;;;13.10;99.90;;;;;;6142737;23;20546;-70
2023/05/10 04:00:31;;;;;;;3.58;3.38;;;13.00;99.90;;;;;;6133385;23;20191;-69
2023/05/10 04:03:00;;;;;;;3.63;3.33;;;13.00;99.90;;;;;;6146084;23;20545;-70
2023/05/10 04:05:27;;;;;;;4.00;3.70;;;13.00;99.90;;;;;;6145583;23;20237;-69
2023/05/10 04:07:54;;;;;;;4.30;3.90;;;13.00;99.90;;;;;;6132987;23;20191;-69
2023/05/10 04:10:22;;;;;;;3.80;3.60;;;13.00;99.90;;;;;;6127767;23;20230;-70
2023/05/10 04:12:49;;;;;;;3.78;3.58;;;12.90;99.90;;;;;;6133951;23;20274;-69
2023/05/10 04:15:16;;;;;;;3.47;3.28;;;13.00;99.90;;;;;;6146390;23;20348;-69
2023/05/10 04:17:43;;;;;;;3.40;3.20;;;13.00;99.90;;;;;;6130706;23;20231;-70
2023/05/10 04:20:12;;;;;;;3.35;3.15;;;13.00;99.90;;;;;;6146012;23;20197;-71
2023/05/10 04:22:39;;;;;;;3.23;3.03;;;13.00;99.90;;;;;;6135472;23;20182;-71
2023/05/10 04:25:07;;;;;;;3.70;3.40;;;13.00;99.90;;;;;;6144747;23;20462;-71
2023/05/10 04:27:34;;;;;;;3.50;2.97;;;13.10;99.90;;;;;;6140376;23;20180;-70
2023/05/10 04:30:02;;;;;;;2.90;2.70;;;13.00;99.90;;;;;;6131221;23;20983;-70
2023/05/10 04:32:30;;;;;;;2.50;2.40;;;13.10;99.90;;;;;;6140188;23;20252;-71
2023/05/10 04:34:57;;;;;;;2.78;2.58;;;13.10;99.90;;;;;;6135063;23;20464;-70
2023/05/10 04:37:25;;;;;;;3.00;2.30;;;13.10;99.90;;;;;;6120298;23;20220;-71
2023/05/10 04:39:53;;;;;;;2.90;2.70;;;13.20;99.90;;;;;;6135288;23;20187;-71
2023/05/10 04:42:20;;;;;;;2.90;2.43;;;13.20;99.90;;;;;;6134173;23;20474;-71
2023/05/10 04:44:47;;;;;;;3.33;2.45;;;13.10;99.90;;;;;;6119722;23;20475;-70
2023/05/10 04:47:16;;;;;;;2.40;2.20;;;13.10;99.90;;;;;;6133757;23;20200;-71
2023/05/10 04:49:43;;;;;;;2.20;2.00;;;13.20;99.90;;;;;;6132122;23;20441;-70
2023/05/10 04:52:11;;;;;;;2.13;2.03;;;13.20;99.90;;;;;;6135577;23;20233;-70
2023/05/10 04:54:40;;;;;;;2.10;2.00;;;13.20;99.90;;;;;;6135169;23;20465;-71
2023/05/10 04:57:07;;;;;;;1.80;1.70;;;13.20;99.90;;;;;;6128565;23;20462;-74
2023/05/10 04:59:37;;;;;;;3.50;2.40;;;13.30;99.90;;;;;;6130466;23;20441;-71
2023/05/10 05:02:04;;;;;;;2.27;2.17;;;13.30;99.90;;;;;;6131282;23;21036;-70
2023/05/10 05:04:31;;;;;;;2.40;2.20;;;13.30;99.90;;;;;;6139788;23;20472;-70
2023/05/10 05:06:58;;;;;;;2.37;2.17;;;13.40;99.90;;;;;;6128380;23;20513;-71
2023/05/10 05:09:26;;;;;;;2.90;2.13;;;13.40;99.90;;;;;;6153938;23;20533;-70
2023/05/10 05:11:54;;;;;;;2.77;2.53;;;13.50;99.90;;;;;;6138357;23;20532;-71
2023/05/10 05:14:21;;;;;;;2.73;2.53;;;13.50;99.90;;;;;;6137920;23;20770;-70
2023/05/10 05:16:49;;;;;;;2.37;2.17;;;13.50;99.90;;;;;;6135015;23;20563;-71
2023/05/10 05:19:16;;;;;;;1.80;1.70;;;13.50;99.90;;;;;;6142548;23;20967;-71
2023/05/10 05:21:43;;;;;;;2.40;2.30;;;13.60;99.90;;;;;;6131483;23;20477;-71
2023/05/10 05:24:12;;;;;;;2.10;2.00;;;13.70;99.90;;;;;;6127483;23;20509;-71
2023/05/10 05:26:39;;;;;;;2.10;1.90;;;13.70;99.90;;;;;;6136137;23;20481;-71
2023/05/10 05:29:08;;;;;;;3.17;2.37;;;13.80;99.90;;;;;;6139251;23;20827;-71
2023/05/10 05:31:35;;;;;;;2.33;2.13;;;13.90;99.90;;;;;;6138931;23;20466;-71
2023/05/10 05:34:02;;;;;;;4.03;2.13;;;13.90;99.90;;;;;;6140019;23;20436;-70
2023/05/10 05:36:29;;;;;;;2.70;2.50;;;14.00;99.90;;;;;;6130253;23;20538;-70
2023/05/10 05:38:56;;;;;;;3.10;2.27;;;14.00;99.90;;;;;;6144031;23;20442;-70
2023/05/10 05:41:24;;;;;;;2.10;2.00;;;14.00;99.90;;;;;;6129545;23;20453;-71
2023/05/10 05:43:51;;;;;;;3.70;2.40;;;14.10;99.90;;;;;;6140050;23;20443;-70
2023/05/10 05:46:20;;;;;;;2.73;2.50;;;14.10;99.90;;;;;;6131614;23;20512;-70
2023/05/10 05:48:46;;;;;;;2.97;2.67;;;14.10;99.90;;;;;;6134523;23;20524;-70
2023/05/10 05:51:13;;;;;;;2.83;2.63;;;14.20;99.90;;;;;;6130295;23;20514;-70
2023/05/10 05:53:41;;;;;;;3.73;3.17;;;14.20;99.90;;;;;;6128244;23;20457;-70
2023/05/10 05:56:09;;;;;;;3.37;3.10;;;14.20;99.90;;;;;;6147196;23;20532;-70
2023/05/10 05:58:36;;;;;;;3.43;3.00;;;14.30;99.90;;;;;;6138120;23;20441;-70
2023/05/10 06:01:03;;;;;;;2.90;2.70;;;14.30;99.90;;;;;;6142464;23;20492;-71
2023/05/10 06:03:32;;;;;;;2.90;2.60;;;14.40;99.90;;;;;;6134864;23;20489;-70
2023/05/10 06:05:59;;;;;;;2.97;2.70;;;14.40;99.90;;;;;;6139611;23;20969;-70
2023/05/10 06:08:26;;;;;;;3.20;3.00;;;14.50;99.90;;;;;;6141206;23;20460;-71
2023/05/10 06:10:53;;;;;;;3.30;3.00;;;14.50;99.90;;;;;;6121915;23;20436;-71
2023/05/10 06:13:21;;;;;;;3.37;2.70;;;14.50;99.90;;;;;;6131655;23;20440;-70
2023/05/10 06:15:48;;;;;;;2.90;2.70;;;14.60;99.90;;;;;;6134762;23;20527;-70
2023/05/10 06:18:15;;;;;;;2.80;2.60;;;14.60;99.90;;;;;;6142927;23;20443;-70
2023/05/10 06:20:43;;;;;;;2.90;2.60;;;14.60;99.90;;;;;;6132215;23;20931;-70
2023/05/10 06:23:11;;;;;;;2.77;2.53;;;14.60;99.90;;;;;;6138881;23;20430;-70
2023/05/10 06:25:37;;;;;;;2.67;2.43;;;14.60;99.90;;;;;;6128588;23;20498;-71
2023/05/10 06:28:04;;;;;;;3.63;2.70;;;14.60;99.90;;;;;;6138739;23;20453;-70
2023/05/10 06:30:32;;;;;;;3.57;2.83;;;14.60;99.90;;;;;;6132842;23;20514;-70
2023/05/10 06:32:59;;;;;;;2.57;2.37;;;14.50;99.90;;;;;;6140708;23;20854;-70
2023/05/10 06:35:26;;;;;;;2.50;2.00;;;14.50;99.90;;;;;;6141788;23;20512;-69
2023/05/10 06:37:54;;;;;;;2.73;2.40;;;14.40;99.90;;;;;;6139706;23;20514;-70
2023/05/10 06:40:21;;;;;;;2.87;2.67;;;14.50;99.90;;;;;;6139567;23;20435;-71
2023/05/10 06:42:49;;;;;;;2.80;2.53;;;14.40;99.90;;;;;;6140326;23;20944;-70
2023/05/10 06:45:16;;;;;;;2.70;2.50;;;14.40;99.90;;;;;;6141731;23;20488;-70
2023/05/10 06:47:44;;;;;;;2.30;2.10;;;14.40;99.90;;;;;;6155066;23;21629;-70
2023/05/10 06:50:12;;;;;;;2.63;2.43;;;14.40;99.90;;;;;;6135970;23;20443;-69
2023/05/10 06:52:39;;;;;;;2.40;2.20;;;14.50;99.90;;;;;;6139824;23;20924;-70
2023/05/10 06:55:09;;;;;;;2.43;2.13;;;14.50;99.90;;;;;;6142330;23;20451;-70
2023/05/10 06:57:36;;;;;;;2.70;2.10;;;14.60;99.90;;;;;;6137298;23;20438;-70
2023/05/10 07:00:04;;;;;;;1.87;1.77;;;14.60;99.90;;;;;;6136444;23;20445;-70
2023/05/10 07:02:31;;;;;;;3.67;2.50;;;14.60;99.90;;;;;;6141799;23;20941;-70
2023/05/10 07:04:58;;;;;;;2.00;1.90;;;14.70;99.90;;;;;;6143836;23;20549;-70
2023/05/10 07:07:26;;;;;;;2.07;1.97;;;14.80;99.90;;;;;;6133080;23;20470;-70
2023/05/10 07:09:52;;;;;;;1.90;1.80;;;14.90;99.90;;;;;;6134793;23;20432;-70
2023/05/10 07:12:21;;;;;;;2.20;1.83;;;14.90;99.90;;;;;;6135312;23;21081;-70
2023/05/10 07:14:48;;;;;;;1.97;1.87;;;14.80;99.90;;;;;;6125131;23;20865;-70
2023/05/10 07:17:15;;;;;;;2.67;2.20;;;14.80;99.90;;;;;;6136917;23;20451;-70
2023/05/10 07:19:43;;;;;;;3.60;2.10;;;14.90;99.90;;;;;;6138377;23;20485;-70
2023/05/10 07:22:10;;;;;;;2.87;1.90;;;14.90;99.90;;;;;;6141643;23;20465;-70
2023/05/10 07:24:37;;;;;;;2.10;1.90;;;15.00;99.90;;;;;;6131695;23;20973;-70
2023/05/10 07:27:05;;;;;;;1.93;1.70;;;15.00;99.90;;;;;;6123283;23;20472;-70
2023/05/10 07:29:33;;;;;;;1.60;1.50;;;15.10;99.90;;;;;;6136619;23;20444;-70
2023/05/10 07:32:01;;;;;;;1.93;1.77;;;15.10;99.90;;;;;;6127757;23;20440;-70
2023/05/10 07:34:29;;;;;;;3.00;1.53;;;15.20;99.90;;;;;;6130108;23;20497;-70
2023/05/10 07:36:59;;;;;;;1.40;1.30;;;15.20;99.90;;;;;;6126376;23;20435;-70
2023/05/10 07:39:27;;;;;;;2.53;1.60;;;15.20;99.90;;;;;;6137590;23;20466;-70
2023/05/10 07:41:54;;;;;;;1.73;1.40;;;15.20;99.90;;;;;;6130434;23;20471;-70
2023/05/10 07:44:21;;;;;;;1.60;1.30;;;15.30;99.90;;;;;;6140238;23;20469;-70
2023/05/10 07:46:49;;;;;;;1.40;1.30;;;15.30;99.90;;;;;;6137716;23;20975;-70
2023/05/10 07:49:17;;;;;;;1.30;1.20;;;15.30;99.90;;;;;;6129316;23;20991;-70
2023/05/10 07:51:44;;;;;;;1.13;1.03;;;15.20;99.90;;;;;;6141143;23;21025;-70
2023/05/10 07:54:12;;;;;;;1.27;1.10;;;15.10;99.90;;;;;;6141842;23;20438;-70
2023/05/10 07:56:40;;;;;;;1.37;1.00;;;15.00;99.90;;;;;;6141217;23;20938;-70
2023/05/10 07:59:07;;;;;;;1.30;1.20;;;15.00;99.90;;;;;;6128373;23;20525;-70
2023/05/10 08:01:35;;;;;;;2.83;1.17;;;15.10;99.90;;;;;;6144708;23;20440;-70
2023/05/10 08:04:03;;;;;;;1.10;1.00;;;15.10;99.90;;;;;;6141726;23;20432;-70
2023/05/10 08:06:31;;;;;;;1.13;1.03;;;15.10;99.90;;;;;;6144152;23;20496;-70
2023/05/10 08:08:58;;;;;;;1.10;1.00;;;15.30;99.90;;;;;;6118225;23;20440;-70
2023/05/10 08:11:27;;;;;;;1.00;0.90;;;15.10;99.90;;;;;;6135371;23;20511;-70
2023/05/10 08:13:54;;;;;;;0.80;0.70;;;15.10;99.90;;;;;;6137175;23;20438;-70
2023/05/10 08:16:22;;;;;;;2.20;1.00;;;15.10;99.90;;;;;;6133234;23;21817;-69
2023/05/10 08:18:50;;;;;;;2.70;0.93;;;15.10;99.90;;;;;;6134875;23;20481;-69
2023/05/10 08:21:19;;;;;;;2.03;1.50;;;15.10;99.90;;;;;;6134924;23;20439;-70
2023/05/10 08:23:46;;;;;;;1.90;0.97;;;15.00;99.90;;;;;;6135247;23;20467;-70
2023/05/10 08:26:13;;;;;;;0.80;0.70;;;15.00;99.90;;;;;;6137760;23;20494;-69
2023/05/10 08:28:40;;;;;;;0.90;0.80;;;15.20;99.90;;;;;;6138153;23;20519;-70
2023/05/10 08:31:07;;;;;;;0.90;0.83;;;15.20;99.90;;;;;;6145772;23;20425;-70
2023/05/10 08:33:34;;;;;;;0.97;0.70;;;15.40;99.90;;;;;;6142153;23;20958;-70
2023/05/10 08:36:01;;;;;;;1.53;1.03;;;15.50;99.90;;;;;;6130822;23;20471;-70
2023/05/10 08:38:30;;;;;;;1.37;1.07;;;15.60;99.90;;;;;;6137349;23;20444;-70
2023/05/10 08:40:58;;;;;;;1.20;0.90;;;15.70;99.90;;;;;;6135555;23;20461;-70
2023/05/10 08:43:28;;;;;;;1.00;0.80;;;15.70;99.90;;;;;;6128356;23;20436;-70
2023/05/10 08:45:56;;;;;;;0.60;0.60;;;15.80;99.90;;;;;;6134089;23;20455;-70
2023/05/10 08:48:25;;;;;;;1.07;0.90;;;15.80;99.90;;;;;;6138937;23;20436;-70
2023/05/10 08:50:55;;;;;;;0.90;0.70;;;15.80;99.90;;;;;;6139134;23;20433;-70
2023/05/10 08:53:24;;;;;;;1.63;1.23;;;15.80;99.90;;;;;;6143808;23;20440;-70
2023/05/10 08:55:53;;;;;;;1.00;0.70;;;15.80;99.90;;;;;;6137896;23;20461;-70
2023/05/10 08:58:20;;;;;;;0.87;0.77;;;15.90;99.90;;;;;;6138153;23;20563;-70
2023/05/10 09:00:49;;;;;;;2.70;0.87;;;16.00;99.90;;;;;;6137188;23;20429;-70
2023/05/10 09:03:16;;;;;;;1.10;0.70;;;16.00;99.90;;;;;;6143000;23;20496;-70
2023/05/10 09:05:44;;;;;;;0.70;0.60;;;16.10;99.90;;;;;;6129669;23;20491;-70
2023/05/10 09:08:12;;;;;;;0.60;0.50;;;16.20;99.90;;;;;;6133250;23;20486;-70
2023/05/10 09:10:42;;;;;;;1.67;0.60;;;16.30;99.90;;;;;;6139656;23;20548;-70
2023/05/10 09:13:11;;;;;;;0.80;0.73;;;16.40;99.90;;;;;;6134385;23;20429;-70
2023/05/10 09:15:39;;;;;;;1.00;0.60;;;16.50;99.90;;;;;;6144042;23;20472;-70
2023/05/10 09:18:06;;;;;;;1.73;0.70;;;16.70;99.90;;;;;;6151319;23;20441;-70
2023/05/10 09:20:33;;;;;;;0.70;0.60;;;16.80;99.90;;;;;;6132140;23;20442;-70
2023/05/10 09:23:00;;;;;;;1.03;0.70;;;16.90;99.90;;;;;;6141328;23;20987;-70
2023/05/10 09:25:28;;;;;;;0.70;0.70;;;16.90;99.90;;;;;;6137454;23;20460;-70
2023/05/10 09:27:56;;;;;;;1.57;0.70;;;17.00;99.90;;;;;;6139314;23;20514;-70
2023/05/10 09:30:29;;;;;;;1.47;0.90;;;17.10;99.90;;;;;;6133865;23;21009;-70
2023/05/10 09:32:57;;;;;;;0.80;0.70;;;17.10;99.90;;;;;;6142042;23;20951;-70
2023/05/10 09:35:26;;;;;;;0.73;0.60;;;17.20;99.90;;;;;;6129257;23;20460;-70
2023/05/10 09:37:55;;;;;;;1.50;0.70;;;17.10;99.90;;;;;;6146777;23;20841;-70
2023/05/10 09:40:23;;;;;;;0.90;0.80;;;17.20;99.90;;;;;;6140996;23;20499;-70
2023/05/10 09:42:55;;;;;;;1.20;0.63;;;17.10;99.90;;;;;;6141593;23;20487;-70
2023/05/10 09:45:23;;;;;;;1.23;0.67;;;17.20;99.90;;;;;;6138455;23;20865;-70
2023/05/10 09:47:52;;;;;;;0.93;0.70;;;17.40;99.90;;;;;;6131308;23;20472;-69
2023/05/10 09:50:20;;;;;;;1.17;0.70;;;17.60;99.90;;;;;;6129415;23;20445;-70
2023/05/10 09:52:50;;;;;;;1.03;0.70;;;17.80;99.90;;;;;;6135566;23;20445;-70
2023/05/10 09:55:17;;;;;;;0.70;0.60;;;17.90;99.90;;;;;;6144980;23;20515;-70
2023/05/10 09:57:44;;;;;;;1.43;0.73;;;18.00;99.90;;;;;;6135765;23;20498;-70
2023/05/10 10:00:18;;;;;;;2.33;1.10;;;18.10;99.90;;;;;;6148737;23;20453;-70
2023/05/10 10:02:47;;;;;;;0.70;0.70;;;17.70;99.90;;;;;;6140211;23;20497;-70
2023/05/10 10:05:16;;;;;;;0.80;0.70;;;17.30;99.90;;;;;;6133961;23;20546;-70
2023/05/10 10:07:45;;;;;;;1.00;0.90;;;16.90;99.90;;;;;;6146196;23;20548;-70
2023/05/10 10:10:12;;;;;;;0.90;0.80;;;16.70;99.90;;;;;;6143060;23;20460;-70
2023/05/10 10:12:41;;;;;;;4.07;1.53;;;16.50;99.90;;;;;;6137665;23;20444;-70
2023/05/10 10:15:09;;;;;;;0.70;0.70;;;16.30;99.90;;;;;;6147052;23;20870;-70
2023/05/10 10:17:38;;;;;;;0.97;0.70;;;16.10;99.90;;;;;;6132556;23;21003;-70
2023/05/10 10:20:07;;;;;;;1.13;0.90;;;15.90;99.90;;;;;;6142216;23;20448;-70
2023/05/10 10:22:35;;;;;;;0.90;0.80;;;15.90;99.90;;;;;;6144537;23;20528;-69
2023/05/10 10:25:02;;;;;;;1.20;0.70;;;15.90;99.90;;;;;;6144167;23;20479;-70
2023/05/10 10:27:36;;;;;;;1.47;0.80;;;15.90;99.90;;;;;;6127743;23;20467;-70
2023/05/10 10:30:14;;;;;;;1.20;1.00;;;15.90;99.90;;;;;;6139824;23;20512;-70
2023/05/10 10:33:00;;;;;;;1.43;0.70;;;16.00;99.90;;;;;;6146431;23;20436;-70
2023/05/10 10:35:27;;;;;;;0.80;0.80;;;16.20;99.90;;;;;;6148969;23;20451;-70
2023/05/10 10:37:55;;;;;;;0.90;0.70;;;16.30;99.90;;;;;;6127046;23;20551;-70
2023/05/10 10:40:27;;;;;;;1.50;0.80;;;16.40;99.90;;;;;;6144303;23;20467;-70
2023/05/10 10:42:55;;;;;;;0.90;0.80;;;16.60;99.90;;;;;;6148976;23;20467;-70
2023/05/10 10:45:23;;;;;;;1.20;0.63;;;16.70;99.90;;;;;;6135154;23;20511;-70
2023/05/10 10:48:14;;;;;;;1.20;0.80;;;16.70;99.90;;;;;;6135294;23;20548;-70
2023/05/10 10:50:46;;;;;;;1.27;0.80;;;16.90;99.90;;;;;;6119794;23;20501;-70
2023/05/10 10:53:15;;;;;;;0.80;0.70;;;16.80;99.90;;;;;;6128129;23;20432;-81
2023/05/10 10:55:48;;;;;;;0.73;0.70;;;16.90;99.90;;;;;;6145258;23;20502;-69
2023/05/10 10:58:31;;;;;;;1.77;0.60;;;16.80;99.90;;;;;;6127698;23;20429;-69
2023/05/10 11:01:14;;;;;;;1.13;0.70;;;16.80;99.90;;;;;;6137356;23;20488;-70
2023/05/10 11:03:41;;;;;;;1.13;0.90;;;16.80;99.90;;;;;;6134754;23;20443;-69
2023/05/10 11:06:09;;;;;;;2.00;0.70;;;16.80;99.90;;;;;;6133039;23;20457;-70
2023/05/10 11:08:47;;;;;;;0.87;0.63;;;16.80;99.90;;;;;;6144480;23;20513;-70
2023/05/10 11:11:15;;;;;;;0.90;0.80;;;16.70;99.90;;;;;;6139131;23;20424;-69
2023/05/10 11:13:44;;;;;;;1.43;0.80;;;16.80;99.90;;;;;;6129556;23;20531;-69
2023/05/10 11:16:13;;;;;;;2.90;0.90;;;16.70;99.90;;;;;;6138380;23;20460;-69
2023/05/10 11:18:41;;;;;;;4.13;1.30;;;17.00;99.90;;;;;;6129633;23;20805;-69
2023/05/10 11:21:11;;;;;;;1.87;1.13;;;17.00;99.90;;;;;;6125503;23;20460;-69
2023/05/10 11:23:55;;;;;;;0.90;0.80;;;17.20;99.90;;;;;;6133477;23;20437;-69
2023/05/10 11:26:25;;;;;;;1.20;1.10;;;17.20;99.90;;;;;;6150415;23;20437;-69
2023/05/10 11:28:54;;;;;;;1.00;0.90;;;17.40;99.90;;;;;;6135011;23;20485;-70
2023/05/10 11:31:22;;;;;;;1.13;1.03;;;17.60;99.90;;;;;;6138867;23;20428;-70
2023/05/10 11:33:51;;;;;;;1.67;0.90;;;18.00;99.90;;;;;;6138063;23;20476;-70
2023/05/10 11:36:20;;;;;;;2.60;1.07;;;18.40;99.90;;;;;;6129561;23;20429;-70
2023/05/10 11:38:48;;;;;;;1.50;0.90;;;18.90;99.90;;;;;;6138056;23;21751;-70
2023/05/10 11:41:18;;;;;;;1.60;0.90;;;19.40;99.90;;;;;;6144599;23;20525;-69
2023/05/10 11:43:48;;;;;;;1.50;1.10;;;19.70;99.90;;;;;;6134678;23;20427;-69
2023/05/10 11:46:17;;;;;;;1.57;0.90;;;19.60;99.90;;;;;;6130960;23;20433;-69
2023/05/10 11:48:44;;;;;;;1.50;1.00;;;19.30;99.90;;;;;;6135320;23;22028;-69
2023/05/10 11:51:12;;;;;;;1.20;0.93;;;19.20;99.90;;;;;;6142282;23;20927;-69
2023/05/10 11:53:39;;;;;;;1.77;1.13;;;19.10;99.90;;;;;;6133990;23;20439;-69
2023/05/10 11:56:07;;;;;;;1.60;1.10;;;18.90;99.90;;;;;;6139267;23;21006;-69
2023/05/10 11:58:37;;;;;;;1.07;0.90;;;18.60;99.90;;;;;;6130635;23;21148;-69
2023/05/10 12:01:05;;;;;;;2.30;1.20;;;18.40;99.90;;;;;;6142622;23;20804;-69
2023/05/10 12:03:32;;;;;;;1.90;1.20;;;18.10;99.90;;;;;;6126415;23;20433;-69
2023/05/10 12:06:00;;;;;;;2.90;1.27;;;17.80;99.90;;;;;;6123674;23;20511;-69
2023/05/10 12:08:29;;;;;;;2.30;1.10;;;17.60;99.90;;;;;;6134241;23;21016;-69
2023/05/10 12:11:06;;;;;;;1.80;1.17;;;17.50;99.90;;;;;;6125748;23;20429;-69
2023/05/10 12:13:33;;;;;;;3.83;1.20;;;17.40;99.90;;;;;;6132733;23;20430;-70
2023/05/10 12:16:13;;;;;;;2.23;1.10;;;17.40;99.90;;;;;;6140025;23;20488;-70
2023/05/10 12:18:42;;;;;;;2.30;1.73;;;17.40;99.90;;;;;;6148674;23;20992;-70
2023/05/10 12:21:11;;;;;;;2.03;1.50;;;17.40;99.90;;;;;;6141272;23;20833;-69
2023/05/10 12:23:38;;;;;;;1.63;1.30;;;17.20;99.90;;;;;;6142583;23;20437;-69
2023/05/10 12:26:06;;;;;;;2.30;1.20;;;17.10;99.90;;;;;;6137613;23;20456;-70
2023/05/10 12:28:33;;;;;;;3.90;1.33;;;17.10;99.90;;;;;;6133308;23;21007;-70
2023/05/10 12:31:03;;;;;;;1.10;1.00;;;17.20;99.90;;;;;;6139092;23;20519;-71
2023/05/10 12:33:38;;;;;;;1.57;1.03;;;17.00;99.90;;;;;;6146673;23;20442;-70
2023/05/10 12:36:06;;;;;;;1.63;0.90;;;17.00;99.90;;;;;;6144851;23;20441;-70
2023/05/10 12:38:35;;;;;;;3.70;1.10;;;17.10;99.90;;;;;;6137087;23;20440;-70
2023/05/10 12:41:03;;;;;;;1.37;0.93;;;17.10;99.90;;;;;;6145695;23;20432;-70
2023/05/10 12:43:31;;;;;;;1.47;1.00;;;17.20;99.90;;;;;;6139124;23;20479;-70
2023/05/10 12:45:58;;;;;;;1.73;0.97;;;17.30;99.90;;;;;;6145716;23;20456;-69
2023/05/10 12:48:28;;;;;;;1.97;1.20;;;17.40;99.90;;;;;;6132107;23;20464;-69
2023/05/10 12:50:55;;;;;;;1.63;0.90;;;17.50;99.90;;;;;;6128966;23;20512;-69
2023/05/10 12:53:23;;;;;;;1.27;1.03;;;17.60;99.90;;;;;;6144564;23;20780;-69
2023/05/10 12:55:49;;;;;;;2.00;1.00;;;17.70;99.90;;;;;;6147901;23;20459;-69
2023/05/10 12:58:16;;;;;;;2.83;1.00;;;17.70;99.90;;;;;;6132806;23;20869;-69